Aérodrome :
LOGIN :

S'inscrire | Disclaimer

   EN    FR    IT 

 










Légende :    VFR   VFR Marginal   IFR   IFR Intensif   IFR Très Intensif
Visi : 
Plafond : 
>= 8 km
>= 3000ft
5 à 8 km
1000 à 3000 ft
1500m à 5 km
500 à 1000 ft
800 à 1500m
200 à 500 ft
< 800m
< 200 ft
Symboles :   Orages  Brouillard  Fortes neiges  Fortes précipitations  Vent > 20 kt
SIGMETs :   Divers  Orages  Givrage  Turbulence  Onde Orograph.  Cendres Volcan.







- Altitude de l'aérodrome : 22 ft
- Code IATA : LDY
- Voir les cartes d'approche


EGAE - Londonderry Eglington

METARs EXPIRÉS :
  • 241420Z 25018KT 230V290 9999 FEW018 SCT028 15/09 Q1009
  • 241350Z 26018KT 9999 FEW032 BKN038 15/09 Q1010
  • 241320Z 25020KT 9999 FEW028 BKN037 16/08 Q1009
  • 241250Z 26019KT 9999 FEW028 BKN037 15/08 Q1010
  • 241220Z 26020KT 9999 FEW028 BKN035 15/09 Q1010
  • 241150Z 24018KT 9999 FEW028 BKN035 15/08 Q1010

Prévision TAF périmée.
Pas de NOTAMs connus pour ce terrain.
2 SIGMETs publiés pour la FIR Scottish (EGPX) :
 
Turbulence forte
EGPX SIGMET 10 VALID 242200/250200 EGRR
EGPX SCOTTISH FIR SEV TURB FCST WI N6010 W00031 - N5820 E00128 - N5811 W00348 - N5847 W00500 - N6014 W00159 - N6010 W00031 SFC/FL060 MOV ESE 10KT WKN=
Onde orographique forte
EGPX SIGMET 09 VALID 242200/250200 EGRR
EGPX SCOTTISH FIR SEV MTW FCST WI N5743 E00016 - N5513 E00046 - N5541 W00440 - N5824 W00444 - N5743 E00016 FL030/180 STNR WKN=



MET'MAP, la Météo Aéronautique d'un coup d'oeil ! - Copyright ORBIFLY Décembre 2007 - Disclaimer

ORBIFLY MET'MAP TEAM :

Programmation & Développement : Alexandra Zaïnal
Conception & Développement : Baudouin d'Aumeries
Co-Programmation & Développement : Marc-Olivier Méhu
Soutien technique & logistique : Manuel Goepfert

Contact : metmap@orbifly.com




SOURCES & CREDITS :

   NOAA